createdAt,value
2018-04-24T00:00:41.940Z,11.0
2018-04-24T00:01:42.673Z,14.5
2018-04-24T00:02:43.512Z,11.2
2018-04-24T00:03:44.225Z,12.6
2018-04-24T00:04:44.996Z,10.7
2018-04-24T00:05:45.723Z,9.6
2018-04-24T00:06:46.454Z,10.3
2018-04-24T00:07:47.272Z,9.8
2018-04-24T00:08:48.013Z,12.9
2018-04-24T00:09:48.815Z,8.8
2018-04-24T00:10:49.461Z,11.4
2018-04-24T00:11:50.203Z,10.7
2018-04-24T00:12:50.925Z,11.3
2018-04-24T00:13:51.668Z,9.0
2018-04-24T00:14:52.407Z,10.9
2018-04-24T00:15:53.220Z,9.2
2018-04-24T00:16:53.964Z,8.9
2018-04-24T00:17:54.740Z,10.7
2018-04-24T00:18:55.496Z,11.6
2018-04-24T00:19:56.223Z,9.9
2018-04-24T00:20:56.968Z,10.5
2018-04-24T00:21:57.763Z,13.3
2018-04-24T00:22:58.500Z,11.4
2018-04-24T00:23:59.226Z,10.4
2018-04-24T00:24:59.970Z,9.7
2018-04-24T00:26:00.785Z,11.2
2018-04-24T00:27:01.441Z,10.5
2018-04-24T00:28:02.252Z,12.3
2018-04-24T00:29:02.979Z,11.7
2018-04-24T00:30:03.777Z,10.5
2018-04-24T00:31:04.508Z,11.0
2018-04-24T00:32:05.250Z,16.1
2018-04-24T00:33:05.960Z,10.2
2018-04-24T00:34:06.701Z,10.4
2018-04-24T00:35:07.807Z,10.8
2018-04-24T00:36:08.503Z,10.4
2018-04-24T00:37:09.223Z,10.6
2018-04-24T00:38:09.951Z,9.4
2018-04-24T00:39:10.692Z,10.5
2018-04-24T00:40:11.581Z,10.4
2018-04-24T00:41:12.331Z,9.9
2018-04-24T00:42:13.064Z,10.7
2018-04-24T00:43:13.812Z,11.3
2018-04-24T00:44:14.559Z,9.5
2018-04-24T00:45:15.357Z,10.5
2018-04-24T00:46:16.088Z,12.9
2018-04-24T00:47:16.873Z,9.6
2018-04-24T00:48:17.600Z,11.2
2018-04-24T00:49:18.341Z,9.4
2018-04-24T00:50:19.120Z,9.3
2018-04-24T00:51:19.849Z,10.8
2018-04-24T00:52:20.669Z,9.0
2018-04-24T00:53:21.392Z,12.6
2018-04-24T00:54:22.132Z,10.1
2018-04-24T00:55:22.872Z,10.5
2018-04-24T00:56:23.663Z,14.2
2018-04-24T00:57:24.400Z,8.8
2018-04-24T00:58:25.127Z,12.7
2018-04-24T00:59:25.843Z,8.9
2018-04-24T01:00:26.641Z,9.0
2018-04-24T01:01:27.482Z,11.3
2018-04-24T01:02:28.215Z,10.9
2018-04-24T01:03:28.951Z,9.5
2018-04-24T01:04:29.683Z,9.5
2018-04-24T01:05:30.435Z,11.7
2018-04-24T01:06:31.163Z,10.3
2018-04-24T01:07:32.739Z,10.1
2018-04-24T01:08:33.538Z,10.0
2018-04-24T01:09:34.335Z,9.9
2018-04-24T01:10:35.141Z,9.7
2018-04-24T01:11:35.879Z,9.5
2018-04-24T01:12:36.624Z,9.9
2018-04-24T01:13:37.350Z,10.3
2018-04-24T01:14:38.080Z,10.6
2018-04-24T01:15:38.809Z,20.7
2018-04-24T01:16:39.543Z,11.1
2018-04-24T01:17:40.268Z,14.3
2018-04-24T01:18:40.999Z,14.1
2018-04-24T01:19:41.745Z,10.6
2018-04-24T01:20:42.534Z,13.4
2018-04-24T01:21:43.325Z,11.3
2018-04-24T01:22:44.142Z,10.9
2018-04-24T01:23:44.909Z,11.6
2018-04-24T01:24:45.661Z,11.5
2018-04-24T01:25:46.393Z,12.3
2018-04-24T01:26:47.116Z,11.2
2018-04-24T01:27:47.855Z,12.7
2018-04-24T01:28:48.694Z,12.5
2018-04-24T01:29:49.429Z,13.3
2018-04-24T01:30:50.186Z,12.8
2018-04-24T01:31:51.001Z,12.6
2018-04-24T01:32:51.731Z,15.7
2018-04-24T01:33:52.518Z,12.2
2018-04-24T01:34:53.308Z,12.8
2018-04-24T01:35:54.034Z,12.1
2018-04-24T01:36:54.755Z,13.1
2018-04-24T01:37:55.496Z,12.4
2018-04-24T01:38:56.220Z,12.6
2018-04-24T01:39:57.363Z,13.2
2018-04-24T01:40:58.085Z,14.5
2018-04-24T01:41:58.835Z,14.2
2018-04-24T01:42:59.535Z,17.3
2018-04-24T01:44:00.264Z,12.8
2018-04-24T01:45:01.121Z,12.9
2018-04-24T01:46:01.899Z,13.0
2018-04-24T01:47:02.635Z,12.8
2018-04-24T01:48:03.367Z,12.6
2018-04-24T01:49:04.169Z,12.0
2018-04-24T01:50:04.998Z,11.8
2018-04-24T01:51:05.736Z,12.2
2018-04-24T01:52:06.463Z,11.8
2018-04-24T01:53:07.204Z,12.2
2018-04-24T01:54:07.939Z,12.4
2018-04-24T01:55:08.684Z,12.7
2018-04-24T01:56:09.505Z,15.4
2018-04-24T01:57:10.242Z,12.1
2018-04-24T01:58:11.035Z,13.4
2018-04-24T01:59:11.867Z,12.6
2018-04-24T02:00:12.595Z,14.9
2018-04-24T02:01:13.669Z,14.0
2018-04-24T02:02:14.765Z,16.3
2018-04-24T02:03:15.787Z,13.3
2018-04-24T02:04:16.459Z,13.1
2018-04-24T02:05:17.287Z,14.1
2018-04-24T02:06:18.070Z,13.2
2018-04-24T02:07:18.805Z,12.6
2018-04-24T02:08:19.713Z,13.0
2018-04-24T02:09:20.448Z,14.4
2018-04-24T02:10:21.193Z,13.5
2018-04-24T02:11:21.991Z,14.9
2018-04-24T02:12:22.723Z,16.0
2018-04-24T02:13:23.856Z,17.4
2018-04-24T02:14:24.579Z,14.0
2018-04-24T02:15:25.323Z,13.3
2018-04-24T02:16:26.053Z,13.7
2018-04-24T02:17:26.782Z,16.0
2018-04-24T02:18:27.518Z,18.3
2018-04-24T02:19:28.254Z,14.3
2018-04-24T02:20:28.988Z,15.0
2018-04-24T02:21:29.903Z,15.0
2018-04-24T02:22:30.683Z,12.7
2018-04-24T02:23:31.449Z,13.7
2018-04-24T02:24:32.170Z,14.1
2018-04-24T02:25:32.905Z,14.3
2018-04-24T02:26:33.646Z,14.9
2018-04-24T02:27:34.385Z,14.5
2018-04-24T02:28:35.176Z,14.3
2018-04-24T02:29:35.903Z,15.6
2018-04-24T02:30:36.728Z,15.1
2018-04-24T02:31:37.452Z,15.0
2018-04-24T02:32:38.195Z,14.8
2018-04-24T02:33:38.946Z,14.3
2018-04-24T02:34:39.662Z,16.5
2018-04-24T02:35:40.397Z,19.0
2018-04-24T02:36:41.148Z,16.3
2018-04-24T02:37:41.903Z,16.6
2018-04-24T02:38:42.663Z,15.4
2018-04-24T02:39:43.392Z,16.6
2018-04-24T02:40:44.122Z,14.7
2018-04-24T02:41:44.860Z,18.2
2018-04-24T02:42:45.612Z,17.2
2018-04-24T02:43:46.333Z,15.3
2018-04-24T02:44:47.072Z,16.6
2018-04-24T02:45:47.793Z,16.0
2018-04-24T02:46:48.550Z,16.5
2018-04-24T02:47:49.360Z,17.5
2018-04-24T02:48:50.133Z,20.4
2018-04-24T02:49:50.881Z,18.1
2018-04-24T02:50:51.620Z,16.7
2018-04-24T02:51:52.341Z,20.1
2018-04-24T02:52:53.075Z,19.2
2018-04-24T02:53:53.802Z,20.2
2018-04-24T02:54:54.767Z,18.3
2018-04-24T02:55:55.440Z,19.5
2018-04-24T02:56:56.698Z,19.3
2018-04-24T02:57:57.376Z,20.1
2018-04-24T02:58:58.119Z,21.1
2018-04-24T02:59:58.850Z,20.5
2018-04-24T03:01:00.000Z,18.9
2018-04-24T03:02:00.755Z,19.6
2018-04-24T03:03:01.556Z,19.1
2018-04-24T03:04:02.286Z,19.5
2018-04-24T03:05:03.026Z,26.5
2018-04-24T03:06:03.844Z,23.5
2018-04-24T03:07:04.592Z,22.6
2018-04-24T03:08:05.309Z,22.8
2018-04-24T03:09:06.040Z,24.8
2018-04-24T03:10:06.768Z,24.3
2018-04-24T03:11:07.483Z,26.0
2018-04-24T03:12:08.254Z,26.6
2018-04-24T03:13:09.058Z,24.6
2018-04-24T03:14:09.797Z,30.6
2018-04-24T03:15:10.528Z,25.5
2018-04-24T03:16:11.235Z,26.0
2018-04-24T03:17:11.966Z,28.5
2018-04-24T03:18:12.731Z,31.6
2018-04-24T03:19:13.474Z,28.9
2018-04-24T03:20:14.290Z,27.8
2018-04-24T03:21:15.025Z,29.6
2018-04-24T03:22:15.751Z,27.1
2018-04-24T03:23:16.539Z,28.0
2018-04-24T03:24:17.278Z,25.8
2018-04-24T03:25:18.014Z,23.6
2018-04-24T03:26:18.761Z,26.9
2018-04-24T03:27:19.501Z,22.9
2018-04-24T03:28:20.305Z,25.7
2018-04-24T03:29:21.150Z,25.4
2018-04-24T03:30:21.967Z,21.0
2018-04-24T03:31:22.687Z,30.4
2018-04-24T03:32:23.432Z,19.7
2018-04-24T03:33:24.235Z,15.5
2018-04-24T03:34:25.465Z,16.0
2018-04-24T03:35:26.186Z,16.4
2018-04-24T03:36:26.914Z,16.9
2018-04-24T03:37:27.633Z,16.2
2018-04-24T03:38:28.431Z,13.5
2018-04-24T03:39:29.169Z,16.1
2018-04-24T03:40:29.915Z,15.8
2018-04-24T03:41:30.644Z,14.9
2018-04-24T03:42:31.364Z,71.4
2018-04-24T03:43:32.111Z,22.7
2018-04-24T03:44:32.841Z,13.6
2018-04-24T03:45:33.602Z,17.4
2018-04-24T03:46:34.400Z,66.8
2018-04-24T03:47:35.140Z,28.1
2018-04-24T03:48:35.881Z,15.7
2018-04-24T03:49:36.612Z,44.5
2018-04-24T03:50:37.341Z,18.0
2018-04-24T03:51:38.166Z,13.6
2018-04-24T03:52:38.899Z,15.5
2018-04-24T03:53:39.647Z,17.6
2018-04-24T03:54:40.383Z,14.8
2018-04-24T03:55:41.112Z,14.5
2018-04-24T03:56:41.960Z,14.2
2018-04-24T03:57:42.710Z,16.3
2018-04-24T03:58:43.442Z,16.3
2018-04-24T03:59:44.262Z,15.6
2018-04-24T04:00:45.070Z,20.3
2018-04-24T04:01:45.803Z,18.1
2018-04-24T04:02:46.605Z,18.5
2018-04-24T04:03:47.403Z,18.1
2018-04-24T04:04:48.267Z,19.9
2018-04-24T04:05:49.064Z,21.7
2018-04-24T04:06:49.806Z,17.9
2018-04-24T04:07:50.553Z,19.8
2018-04-24T04:08:51.282Z,20.8
2018-04-24T04:09:52.021Z,21.7
2018-04-24T04:10:52.811Z,18.5
2018-04-24T04:11:53.625Z,20.7
2018-04-24T04:12:54.404Z,18.8
2018-04-24T04:13:55.155Z,18.3
2018-04-24T04:14:55.916Z,17.1
2018-04-24T04:15:56.812Z,16.4
2018-04-24T04:16:57.475Z,16.1
2018-04-24T04:17:58.550Z,19.9
2018-04-24T04:18:59.275Z,21.2
2018-04-24T04:20:00.013Z,20.9
2018-04-24T04:21:00.754Z,22.2
2018-04-24T04:22:01.500Z,20.3
2018-04-24T04:23:02.231Z,20.5
2018-04-24T04:24:02.962Z,19.5
2018-04-24T04:25:03.700Z,21.0
2018-04-24T04:26:04.799Z,20.0
2018-04-24T04:27:05.597Z,17.3
2018-04-24T04:28:06.386Z,16.7
2018-04-24T04:29:07.118Z,16.0
2018-04-24T04:30:07.853Z,24.1
2018-04-24T04:31:08.989Z,17.7
2018-04-24T04:32:09.769Z,19.6
2018-04-24T04:33:10.515Z,22.3
2018-04-24T04:34:11.244Z,18.2
2018-04-24T04:35:12.061Z,19.9
2018-04-24T04:36:12.793Z,20.8
2018-04-24T04:37:13.527Z,23.4
2018-04-24T04:38:14.272Z,21.3
2018-04-24T04:39:15.186Z,21.1
2018-04-24T04:40:15.923Z,18.5
2018-04-24T04:41:16.682Z,28.7
2018-04-24T04:42:17.418Z,17.0
2018-04-24T04:43:18.154Z,19.6
2018-04-24T04:44:18.962Z,17.5
2018-04-24T04:45:19.726Z,18.3
2018-04-24T04:46:20.782Z,14.0
2018-04-24T04:47:21.464Z,15.2
2018-04-24T04:48:22.284Z,16.5
2018-04-24T04:49:23.075Z,17.5
2018-04-24T04:50:23.821Z,15.3
2018-04-24T04:51:25.028Z,19.8
2018-04-24T04:52:25.802Z,13.5
2018-04-24T04:53:26.549Z,19.3
2018-04-24T04:54:27.279Z,18.0
2018-04-24T04:55:28.017Z,20.3
2018-04-24T04:56:28.882Z,12.9
2018-04-24T04:57:29.664Z,11.5
2018-04-24T04:58:30.424Z,12.9
2018-04-24T04:59:31.147Z,12.8
2018-04-24T05:00:31.942Z,11.4
2018-04-24T05:01:32.683Z,15.8
2018-04-24T05:02:33.422Z,11.5
2018-04-24T05:03:34.194Z,14.1
2018-04-24T05:04:34.998Z,15.3
2018-04-24T05:05:35.736Z,16.1
2018-04-24T05:06:36.486Z,9.9
2018-04-24T05:07:37.265Z,11.3
2018-04-24T05:08:37.995Z,12.4
2018-04-24T05:09:38.731Z,15.7
2018-04-24T05:10:39.480Z,13.0
2018-04-24T05:11:40.206Z,14.4
2018-04-24T05:12:41.283Z,10.9
2018-04-24T05:13:42.033Z,11.5
2018-04-24T05:14:42.776Z,8.7
2018-04-24T05:15:43.593Z,13.2
2018-04-24T05:16:44.339Z,12.4
2018-04-24T05:17:45.057Z,9.2
2018-04-24T05:18:45.804Z,9.7
2018-04-24T05:19:46.627Z,10.3
2018-04-24T05:20:47.446Z,13.1
2018-04-24T05:21:48.182Z,8.0
2018-04-24T05:22:48.921Z,10.3
2018-04-24T05:23:49.660Z,11.0
2018-04-24T05:24:50.491Z,10.7
2018-04-24T05:25:51.219Z,9.8
2018-04-24T05:26:52.024Z,11.1
2018-04-24T05:27:52.776Z,9.9
2018-04-24T05:28:53.510Z,9.1
2018-04-24T05:29:54.271Z,10.4
2018-04-24T05:30:55.073Z,11.0
2018-04-24T05:31:55.792Z,9.8
2018-04-24T05:32:56.612Z,8.6
2018-04-24T05:33:57.343Z,9.0
2018-04-24T05:34:58.173Z,9.9
2018-04-24T05:35:59.017Z,8.4
2018-04-24T05:36:59.832Z,7.6
2018-04-24T05:38:00.578Z,9.0
2018-04-24T05:39:01.324Z,11.0
2018-04-24T05:40:02.142Z,7.6
2018-04-24T05:41:03.717Z,10.7
2018-04-24T05:42:04.711Z,18.6
2018-04-24T05:43:05.512Z,8.9
2018-04-24T05:44:06.317Z,12.4
2018-04-24T05:45:07.074Z,6.8
2018-04-24T05:46:07.820Z,7.8
2018-04-24T05:47:08.545Z,75.5
2018-04-24T05:48:09.380Z,12.8
2018-04-24T05:49:10.211Z,7.7
2018-04-24T05:50:11.030Z,7.2
2018-04-24T05:51:12.117Z,8.5
2018-04-24T05:52:12.868Z,11.9
2018-04-24T05:53:13.600Z,36.4
2018-04-24T05:54:14.347Z,7.1
2018-04-24T05:55:15.102Z,9.0
2018-04-24T05:56:15.842Z,70.1
2018-04-24T05:57:16.569Z,25.7
2018-04-24T05:58:17.291Z,14.3
2018-04-24T05:59:18.104Z,7.5
2018-04-24T06:00:18.854Z,5.9
2018-04-24T06:01:19.676Z,8.8
2018-04-24T06:02:20.494Z,8.2
2018-04-24T06:03:21.233Z,7.2
2018-04-24T06:04:22.161Z,7.0
2018-04-24T06:05:22.903Z,9.6
2018-04-24T06:06:23.633Z,5.4
2018-04-24T06:07:24.365Z,8.4
2018-04-24T06:08:25.131Z,6.1
2018-04-24T06:09:25.911Z,8.4
2018-04-24T06:10:26.626Z,7.8
2018-04-24T06:11:27.364Z,5.1
2018-04-24T06:12:28.106Z,6.9
2018-04-24T06:13:28.826Z,7.2
2018-04-24T06:14:29.576Z,5.9
2018-04-24T06:15:30.716Z,5.0
2018-04-24T06:16:31.514Z,13.8
2018-04-24T06:17:32.282Z,6.7
2018-04-24T06:18:33.032Z,10.0
2018-04-24T06:19:33.757Z,11.1
2018-04-24T06:20:34.744Z,5.5
2018-04-24T06:21:35.495Z,7.6
2018-04-24T06:22:36.266Z,7.6
2018-04-24T06:23:36.962Z,7.6
2018-04-24T06:24:38.003Z,7.4
2018-04-24T06:25:38.689Z,6.4
2018-04-24T06:26:39.407Z,8.5
2018-04-24T06:27:40.171Z,5.8
2018-04-24T06:28:41.008Z,10.1
2018-04-24T06:29:41.633Z,5.3
2018-04-24T06:30:42.388Z,8.7
2018-04-24T06:31:43.131Z,11.2
2018-04-24T06:32:43.853Z,9.6
2018-04-24T06:33:44.592Z,11.2
2018-04-24T06:34:45.338Z,10.3
2018-04-24T06:35:46.677Z,7.1
2018-04-24T06:36:47.903Z,5.3
2018-04-24T06:37:48.610Z,5.9
2018-04-24T06:38:49.379Z,5.9
2018-04-24T06:39:50.341Z,5.6
2018-04-24T06:40:51.302Z,8.9
2018-04-24T06:41:52.146Z,8.2
2018-04-24T06:42:52.874Z,6.6
2018-04-24T06:43:53.611Z,8.9
2018-04-24T06:44:54.343Z,6.2
2018-04-24T06:45:55.137Z,5.6
2018-04-24T06:46:56.123Z,10.9
2018-04-24T06:47:56.862Z,8.2
2018-04-24T06:48:57.602Z,11.7
2018-04-24T06:49:58.345Z,6.0
2018-04-24T06:50:59.150Z,7.6
2018-04-24T06:51:59.949Z,8.9
2018-04-24T06:53:00.684Z,6.2
2018-04-24T06:54:01.433Z,8.8
2018-04-24T06:55:02.265Z,6.4
2018-04-24T06:56:03.011Z,8.4
2018-04-24T06:57:03.723Z,9.0
2018-04-24T06:58:04.457Z,6.6
2018-04-24T06:59:05.200Z,5.9
2018-04-24T07:00:05.919Z,6.8
2018-04-24T07:01:06.643Z,7.7
2018-04-24T07:02:07.374Z,8.1
2018-04-24T07:03:08.108Z,8.5
2018-04-24T07:04:09.152Z,6.8
2018-04-24T07:05:09.898Z,6.6
2018-04-24T07:06:10.639Z,6.5
2018-04-24T07:07:11.382Z,8.5
2018-04-24T07:08:12.102Z,7.1
2018-04-24T07:09:12.851Z,8.4
2018-04-24T07:10:13.606Z,8.3
2018-04-24T07:11:14.343Z,6.0
2018-04-24T07:12:15.164Z,7.3
2018-04-24T07:13:15.888Z,6.2
2018-04-24T07:14:16.712Z,8.4
2018-04-24T07:15:17.450Z,11.6
2018-04-24T07:16:18.180Z,9.7
2018-04-24T07:17:18.931Z,5.4
2018-04-24T07:18:19.678Z,5.9
2018-04-24T07:19:20.411Z,5.9
2018-04-24T07:20:21.230Z,5.3
2018-04-24T07:21:21.977Z,6.9
2018-04-24T07:22:22.708Z,8.0
2018-04-24T07:23:23.434Z,5.9
2018-04-24T07:24:24.161Z,5.7
2018-04-24T07:25:24.896Z,7.5
2018-04-24T07:26:26.100Z,12.4
2018-04-24T07:27:26.913Z,5.5
2018-04-24T07:28:27.672Z,6.4
2018-04-24T07:29:28.422Z,6.5
2018-04-24T07:30:29.148Z,9.3
2018-04-24T07:31:29.902Z,8.2
2018-04-24T07:32:30.627Z,8.4
2018-04-24T07:33:31.378Z,12.7
2018-04-24T07:34:32.117Z,8.5
2018-04-24T07:35:32.864Z,5.9
2018-04-24T07:36:33.622Z,5.9
2018-04-24T07:37:34.435Z,6.0
2018-04-24T07:38:35.185Z,7.2
2018-04-24T07:39:35.921Z,5.6
2018-04-24T07:40:36.658Z,8.2
2018-04-24T07:41:37.408Z,9.8
2018-04-24T07:42:38.125Z,6.4
2018-04-24T07:43:38.962Z,8.2
2018-04-24T07:44:39.713Z,7.3
2018-04-24T07:45:40.453Z,6.0
2018-04-24T07:46:41.325Z,7.9
2018-04-24T07:47:42.417Z,6.7
2018-04-24T07:48:43.144Z,8.8
2018-04-24T07:49:43.871Z,6.8
2018-04-24T07:50:44.605Z,7.9
2018-04-24T07:51:45.342Z,11.3
2018-04-24T07:52:46.099Z,7.5
2018-04-24T07:53:46.825Z,10.6
2018-04-24T07:54:47.852Z,10.9
2018-04-24T07:55:48.594Z,7.8
2018-04-24T07:56:49.422Z,10.6
2018-04-24T07:57:50.226Z,9.8
2018-04-24T07:58:51.032Z,9.5
2018-04-24T07:59:51.753Z,7.1
2018-04-24T08:00:52.576Z,9.9
2018-04-24T08:01:53.398Z,6.4
2018-04-24T08:02:54.143Z,6.7
2018-04-24T08:03:54.945Z,13.7
2018-04-24T08:04:55.691Z,9.2
2018-04-24T08:05:56.453Z,6.7
2018-04-24T08:06:57.290Z,10.8
2018-04-24T08:07:58.011Z,11.4
2018-04-24T08:08:58.761Z,7.9
2018-04-24T08:09:59.507Z,7.5
2018-04-24T08:11:00.223Z,8.3
2018-04-24T08:12:00.959Z,9.2
2018-04-24T08:13:01.696Z,12.3
2018-04-24T08:14:02.436Z,11.1
2018-04-24T08:15:03.169Z,9.3
2018-04-24T08:16:03.927Z,9.9
2018-04-24T08:17:04.725Z,17.7
2018-04-24T08:18:05.472Z,14.2
2018-04-24T08:19:06.224Z,8.3
2018-04-24T08:20:07.036Z,11.2
2018-04-24T08:21:07.776Z,9.8
2018-04-24T08:22:08.509Z,9.7
2018-04-24T08:23:09.265Z,10.9
2018-04-24T08:24:10.034Z,8.4
2018-04-24T08:25:10.778Z,13.7
2018-04-24T08:26:11.521Z,17.5
2018-04-24T08:27:12.248Z,14.1
2018-04-24T08:28:13.044Z,8.5
2018-04-24T08:29:13.961Z,10.7
2018-04-24T08:30:14.687Z,8.1
2018-04-24T08:31:15.439Z,9.6
2018-04-24T08:32:16.242Z,8.4
2018-04-24T08:33:16.977Z,11.8
2018-04-24T08:34:17.845Z,16.7
2018-04-24T08:35:18.587Z,8.4
2018-04-24T08:36:19.304Z,8.6
2018-04-24T08:37:20.149Z,8.7
2018-04-24T08:38:20.888Z,9.2
2018-04-24T08:39:21.697Z,13.0
2018-04-24T08:40:22.504Z,10.0
2018-04-24T08:41:23.242Z,9.9
2018-04-24T08:42:23.995Z,10.2
2018-04-24T08:43:24.784Z,11.1
2018-04-24T08:44:25.550Z,14.2
2018-04-24T08:45:26.283Z,12.3
2018-04-24T08:46:27.201Z,12.0
2018-04-24T08:47:27.939Z,10.5
2018-04-24T08:48:28.672Z,13.2
2018-04-24T08:49:29.409Z,10.9
2018-04-24T08:50:30.194Z,11.6
2018-04-24T08:51:31.040Z,11.4
2018-04-24T08:52:31.869Z,14.7
2018-04-24T08:53:32.608Z,16.7
2018-04-24T08:54:33.351Z,12.2
2018-04-24T08:55:34.092Z,13.1
2018-04-24T08:56:35.127Z,16.0
2018-04-24T08:57:35.882Z,13.8
2018-04-24T08:58:36.631Z,20.8
2018-04-24T08:59:37.380Z,15.6
2018-04-24T09:00:38.122Z,13.8
2018-04-24T09:01:38.872Z,13.0
2018-04-24T09:02:40.091Z,12.8
2018-04-24T09:03:40.834Z,17.2
2018-04-24T09:04:41.645Z,14.7
2018-04-24T09:05:42.374Z,16.9
2018-04-24T09:06:43.115Z,12.5
2018-04-24T09:07:43.856Z,14.6
2018-04-24T09:08:44.586Z,16.0
2018-04-24T09:09:45.308Z,13.2
2018-04-24T09:10:46.055Z,17.4
2018-04-24T09:11:46.790Z,15.3
2018-04-24T09:12:47.545Z,15.1
2018-04-24T09:13:48.337Z,14.0
2018-04-24T09:14:49.142Z,17.6
2018-04-24T09:15:49.932Z,17.4
2018-04-24T09:16:50.681Z,18.3
2018-04-24T09:17:51.406Z,17.6
2018-04-24T09:18:52.146Z,13.7
2018-04-24T09:19:52.893Z,17.5
2018-04-24T09:20:53.648Z,17.6
2018-04-24T09:21:54.397Z,12.3
2018-04-24T09:22:55.140Z,14.6
2018-04-24T09:23:55.934Z,12.4
2018-04-24T09:24:56.701Z,17.7
2018-04-24T09:25:57.445Z,15.8
2018-04-24T09:26:58.255Z,15.3
2018-04-24T09:27:58.946Z,17.2
2018-04-24T09:28:59.681Z,13.1
2018-04-24T09:30:00.478Z,12.8
2018-04-24T09:31:01.234Z,13.7
2018-04-24T09:32:01.971Z,15.8
2018-04-24T09:33:02.710Z,14.2
2018-04-24T09:34:03.639Z,11.9
2018-04-24T09:35:04.388Z,12.2
2018-04-24T09:36:05.201Z,14.4
2018-04-24T09:37:05.932Z,16.2
2018-04-24T09:38:06.681Z,16.8
2018-04-24T09:39:07.474Z,14.6
2018-04-24T09:40:08.175Z,14.1
2018-04-24T09:41:09.008Z,15.9
2018-04-24T09:42:09.823Z,15.6
2018-04-24T09:43:10.563Z,11.4
2018-04-24T09:44:11.319Z,13.4
2018-04-24T09:45:12.044Z,13.3
2018-04-24T09:46:12.791Z,11.2
2018-04-24T09:47:13.554Z,18.9
2018-04-24T09:48:14.340Z,12.7
2018-04-24T09:49:15.089Z,13.8
2018-04-24T09:50:15.953Z,13.8
2018-04-24T09:51:16.770Z,11.9
2018-04-24T09:52:17.473Z,13.9
2018-04-24T09:53:18.316Z,14.5
2018-04-24T09:54:19.138Z,12.0
2018-04-24T09:55:19.960Z,15.0
2018-04-24T09:56:20.680Z,13.0
2018-04-24T09:57:21.451Z,11.6
2018-04-24T09:58:22.175Z,11.4
2018-04-24T09:59:22.934Z,12.4
2018-04-24T10:00:23.667Z,11.0
2018-04-24T10:01:24.543Z,13.0
2018-04-24T10:02:25.369Z,12.2
2018-04-24T10:03:26.138Z,11.8
2018-04-24T10:04:26.971Z,12.0
2018-04-24T10:05:27.710Z,11.6
2018-04-24T10:06:28.468Z,13.0
2018-04-24T10:07:29.501Z,12.0
2018-04-24T10:08:30.249Z,11.8
2018-04-24T10:09:30.991Z,15.5
2018-04-24T10:10:31.743Z,14.2
2018-04-24T10:11:32.507Z,13.3
2018-04-24T10:12:33.563Z,17.9
2018-04-24T10:13:34.449Z,13.7
2018-04-24T10:14:35.139Z,11.5
2018-04-24T10:15:35.952Z,14.3
2018-04-24T10:16:36.703Z,13.9
2018-04-24T10:17:37.568Z,13.4
2018-04-24T10:18:38.322Z,17.9
2018-04-24T10:19:39.237Z,12.9
2018-04-24T10:20:39.908Z,15.3
2018-04-24T10:21:40.767Z,14.8
2018-04-24T10:22:41.581Z,16.5
2018-04-24T10:23:42.390Z,15.4
2018-04-24T10:24:43.127Z,14.6
2018-04-24T10:25:43.881Z,19.0
2018-04-24T10:26:44.624Z,14.6
2018-04-24T10:27:45.465Z,14.9
2018-04-24T10:28:46.274Z,16.2
2018-04-24T10:29:47.022Z,13.8
2018-04-24T10:30:47.777Z,17.3
2018-04-24T10:31:48.513Z,27.8
2018-04-24T10:32:49.260Z,17.5
2018-04-24T10:33:50.002Z,17.6
2018-04-24T10:34:50.733Z,18.2
2018-04-24T10:35:51.484Z,22.1
2018-04-24T10:36:52.579Z,17.9
2018-04-24T10:37:53.393Z,23.0
2018-04-24T10:38:54.127Z,17.2
2018-04-24T10:39:54.881Z,17.7
2018-04-24T10:40:55.687Z,18.4
2018-04-24T10:41:56.485Z,19.2
2018-04-24T10:42:57.289Z,19.5
2018-04-24T10:43:58.033Z,18.2
2018-04-24T10:44:58.789Z,20.2
2018-04-24T10:45:59.558Z,20.9
2018-04-24T10:47:00.399Z,19.6
2018-04-24T10:48:01.262Z,21.0
2018-04-24T10:49:01.970Z,20.3
2018-04-24T10:50:02.711Z,20.0
2018-04-24T10:51:03.526Z,20.1
2018-04-24T10:52:04.272Z,22.1
2018-04-24T10:53:05.021Z,20.6
2018-04-24T10:54:05.771Z,21.4
2018-04-24T10:55:06.521Z,21.4
2018-04-24T10:56:07.263Z,22.5
2018-04-24T10:57:08.029Z,21.4
2018-04-24T10:58:09.182Z,21.7
2018-04-24T10:59:09.929Z,21.6
2018-04-24T11:00:10.660Z,21.3
2018-04-24T11:01:11.473Z,20.6
2018-04-24T11:02:12.215Z,20.8
2018-04-24T11:03:13.042Z,23.0
2018-04-24T11:04:13.846Z,26.2
2018-04-24T11:05:14.661Z,26.8
2018-04-24T11:06:15.495Z,32.9
2018-04-24T11:07:16.309Z,25.0
2018-04-24T11:08:17.067Z,21.3
2018-04-24T11:09:18.236Z,23.8
2018-04-24T11:10:18.991Z,24.2
2018-04-24T11:11:19.823Z,33.3
2018-04-24T11:12:21.688Z,25.6
2018-04-24T11:13:22.661Z,22.5
2018-04-24T11:14:24.110Z,23.4
2018-04-24T11:15:24.995Z,23.8
2018-04-24T11:16:25.805Z,22.9
2018-04-24T11:17:26.558Z,23.0
2018-04-24T11:18:27.303Z,25.9
2018-04-24T11:19:28.107Z,23.9
2018-04-24T11:20:28.856Z,25.1
2018-04-24T11:21:29.687Z,22.9
2018-04-24T11:22:30.343Z,23.8
2018-04-24T11:23:31.084Z,22.6
2018-04-24T11:24:31.898Z,28.7
2018-04-24T11:25:32.632Z,30.4
2018-04-24T11:26:33.459Z,23.9
2018-04-24T11:27:34.219Z,24.5
2018-04-24T11:28:35.029Z,22.4
2018-04-24T11:29:35.778Z,22.7
2018-04-24T11:30:36.608Z,21.5
2018-04-24T11:31:37.444Z,22.6
2018-04-24T11:32:38.181Z,25.8
2018-04-24T11:33:38.931Z,25.3
2018-04-24T11:34:39.676Z,23.7
2018-04-24T11:35:40.434Z,24.1
2018-04-24T11:36:41.321Z,23.3
2018-04-24T11:37:41.979Z,24.1
2018-04-24T11:38:42.722Z,23.3
2018-04-24T11:39:43.469Z,24.6
2018-04-24T11:40:44.372Z,27.5
2018-04-24T11:41:45.105Z,23.3
2018-04-24T11:42:45.927Z,27.5
2018-04-24T11:43:46.710Z,23.4
2018-04-24T11:44:47.409Z,22.9
2018-04-24T11:45:48.225Z,23.3
2018-04-24T11:46:49.024Z,25.4
2018-04-24T11:47:49.780Z,27.7
2018-04-24T11:48:50.531Z,25.6
2018-04-24T11:49:51.261Z,25.6
2018-04-24T11:50:52.022Z,27.0
2018-04-24T11:51:52.780Z,28.2
2018-04-24T11:52:53.517Z,25.7
2018-04-24T11:53:54.257Z,24.9
2018-04-24T11:54:55.014Z,24.7
2018-04-24T11:55:55.742Z,24.6
2018-04-24T11:56:56.908Z,25.1
2018-04-24T11:57:57.684Z,26.0
2018-04-24T11:58:58.432Z,25.2
2018-04-24T11:59:59.196Z,25.1
2018-04-24T12:00:59.945Z,21.8
2018-04-24T12:02:00.760Z,22.6
2018-04-24T12:03:01.509Z,23.5
2018-04-24T12:04:02.257Z,23.0
2018-04-24T12:05:03.014Z,22.9
2018-04-24T12:06:03.756Z,22.9
2018-04-24T12:07:04.491Z,23.6
2018-04-24T12:08:05.252Z,23.7
2018-04-24T12:09:05.992Z,23.3
2018-04-24T12:10:06.805Z,25.0
2018-04-24T12:11:07.517Z,29.7
2018-04-24T12:12:08.253Z,27.2
2018-04-24T12:13:09.029Z,32.2
2018-04-24T12:14:09.774Z,23.4
2018-04-24T12:15:10.596Z,23.2
2018-04-24T12:16:11.349Z,25.0
2018-04-24T12:17:12.072Z,29.3
2018-04-24T12:18:12.838Z,24.1
2018-04-24T12:19:13.580Z,25.0
2018-04-24T12:20:14.312Z,24.8
2018-04-24T12:21:15.131Z,24.2
2018-04-24T12:22:15.917Z,25.0
2018-04-24T12:23:16.652Z,24.3
2018-04-24T12:24:17.406Z,25.7
2018-04-24T12:25:18.155Z,25.2
2018-04-24T12:26:18.892Z,25.8
2018-04-24T12:27:19.639Z,26.0
2018-04-24T12:28:20.397Z,26.4
2018-04-24T12:29:21.227Z,27.7
2018-04-24T12:30:21.969Z,28.0
2018-04-24T12:31:22.714Z,28.6
2018-04-24T12:32:23.527Z,27.9
2018-04-24T12:33:24.390Z,29.0
2018-04-24T12:34:25.177Z,28.3
2018-04-24T12:35:25.924Z,27.3
2018-04-24T12:36:26.666Z,28.2
2018-04-24T12:37:27.431Z,28.4
2018-04-24T12:38:28.184Z,26.5
2018-04-24T12:39:28.941Z,27.0
2018-04-24T12:40:29.691Z,26.8
2018-04-24T12:41:30.434Z,26.4
2018-04-24T12:42:31.283Z,31.9
2018-04-24T12:43:32.091Z,27.2
2018-04-24T12:44:32.828Z,29.6
2018-04-24T12:45:33.562Z,27.7
2018-04-24T12:46:34.324Z,28.9
2018-04-24T12:47:35.078Z,30.3
2018-04-24T12:48:35.831Z,28.5
2018-04-24T12:49:36.582Z,28.1
2018-04-24T12:50:37.333Z,28.5
2018-04-24T12:51:38.213Z,27.6
2018-04-24T12:52:38.939Z,29.1
2018-04-24T12:53:39.726Z,29.9
2018-04-24T12:54:40.553Z,28.5
2018-04-24T12:55:41.293Z,30.3
2018-04-24T12:56:42.144Z,32.3
2018-04-24T12:57:43.024Z,32.4
2018-04-24T12:58:43.736Z,30.4
2018-04-24T12:59:44.478Z,33.6
2018-04-24T13:00:45.228Z,31.1
2018-04-24T13:01:45.992Z,36.4
2018-04-24T13:02:46.729Z,34.7
2018-04-24T13:03:47.643Z,34.0
2018-04-24T13:04:48.529Z,33.3
2018-04-24T13:05:49.251Z,33.2
2018-04-24T13:06:50.001Z,33.2
2018-04-24T13:07:50.847Z,35.9
2018-04-24T13:08:51.608Z,35.4
2018-04-24T13:09:52.367Z,34.9
2018-04-24T13:10:53.101Z,37.1
2018-04-24T13:11:53.845Z,36.1
2018-04-24T13:12:54.673Z,34.2
2018-04-24T13:13:55.430Z,34.1
2018-04-24T13:14:56.205Z,36.4
2018-04-24T13:15:56.960Z,35.4
2018-04-24T13:16:57.702Z,34.4
2018-04-24T13:17:58.445Z,36.1
2018-04-24T13:18:59.319Z,34.1
2018-04-24T13:20:00.060Z,34.4
2018-04-24T13:21:00.798Z,40.0
2018-04-24T13:22:01.543Z,39.7
2018-04-24T13:23:02.312Z,36.1
2018-04-24T13:24:03.459Z,35.9
2018-04-24T13:25:04.185Z,35.5
2018-04-24T13:26:04.944Z,36.9
2018-04-24T13:27:05.692Z,35.4
2018-04-24T13:28:06.433Z,35.2
2018-04-24T13:29:07.263Z,35.6
2018-04-24T13:30:08.015Z,36.8
2018-04-24T13:31:08.760Z,37.0
2018-04-24T13:32:09.505Z,35.0
2018-04-24T13:33:10.263Z,34.5
2018-04-24T13:34:11.012Z,35.8
2018-04-24T13:35:11.786Z,35.9